sensor_id;sensor_type;location;lat;lon;timestamp;noise_LAeq;noise_LA_min;noise_LA_max;noise_LA01;noise_LA95
58303;Laerm;44109;52.398;7.024;2023-02-18T00:01:38;46.09;30.58;57.54;;
58303;Laerm;44109;52.398;7.024;2023-02-18T00:04:05;46.19;30.52;57.66;;
58303;Laerm;44109;52.398;7.024;2023-02-18T00:06:35;46.18;30.81;57.44;;
58303;Laerm;44109;52.398;7.024;2023-02-18T00:09:04;46.00;30.61;57.39;;
58303;Laerm;44109;52.398;7.024;2023-02-18T00:11:37;46.07;30.76;57.44;;
58303;Laerm;44109;52.398;7.024;2023-02-18T00:14:09;45.95;30.54;57.36;;
58303;Laerm;44109;52.398;7.024;2023-02-18T00:16:37;46.10;30.59;57.51;;
58303;Laerm;44109;52.398;7.024;2023-02-18T00:19:07;46.17;30.99;57.45;;
58303;Laerm;44109;52.398;7.024;2023-02-18T00:21:36;46.40;31.10;57.38;;
58303;Laerm;44109;52.398;7.024;2023-02-18T00:24:06;46.50;31.82;57.62;;
58303;Laerm;44109;52.398;7.024;2023-02-18T00:26:35;46.15;31.01;57.57;;
58303;Laerm;44109;52.398;7.024;2023-02-18T00:29:03;46.62;31.35;57.29;;
58303;Laerm;44109;52.398;7.024;2023-02-18T00:31:34;46.10;30.81;57.48;;
58303;Laerm;44109;52.398;7.024;2023-02-18T00:34:03;46.18;30.81;56.99;;
58303;Laerm;44109;52.398;7.024;2023-02-18T00:36:32;46.87;31.00;57.16;;
58303;Laerm;44109;52.398;7.024;2023-02-18T00:39:03;46.17;30.74;57.57;;
58303;Laerm;44109;52.398;7.024;2023-02-18T00:41:32;46.47;31.01;57.71;;
58303;Laerm;44109;52.398;7.024;2023-02-18T00:44:02;46.29;30.85;57.23;;
58303;Laerm;44109;52.398;7.024;2023-02-18T00:46:30;46.60;30.85;57.91;;
58303;Laerm;44109;52.398;7.024;2023-02-18T00:48:58;46.89;31.25;57.72;;
58303;Laerm;44109;52.398;7.024;2023-02-18T00:51:26;46.94;31.25;57.96;;
58303;Laerm;44109;52.398;7.024;2023-02-18T00:53:53;46.90;30.74;57.97;;
58303;Laerm;44109;52.398;7.024;2023-02-18T00:56:21;47.00;30.30;57.89;;
58303;Laerm;44109;52.398;7.024;2023-02-18T00:58:49;47.01;30.74;58.00;;
58303;Laerm;44109;52.398;7.024;2023-02-18T01:01:19;47.08;30.49;58.06;;
58303;Laerm;44109;52.398;7.024;2023-02-18T01:06:15;47.18;30.65;57.89;;
58303;Laerm;44109;52.398;7.024;2023-02-18T01:08:43;47.46;30.89;57.76;;
58303;Laerm;44109;52.398;7.024;2023-02-18T01:11:12;47.44;30.74;57.95;;
58303;Laerm;44109;52.398;7.024;2023-02-18T01:13:40;47.42;30.68;57.90;;
58303;Laerm;44109;52.398;7.024;2023-02-18T01:16:09;47.46;30.68;58.01;;
58303;Laerm;44109;52.398;7.024;2023-02-18T01:18:39;47.66;31.38;57.86;;
58303;Laerm;44109;52.398;7.024;2023-02-18T01:21:08;47.62;30.58;57.81;;
58303;Laerm;44109;52.398;7.024;2023-02-18T01:23:36;47.73;31.29;58.23;;
58303;Laerm;44109;52.398;7.024;2023-02-18T01:26:04;47.47;30.73;57.83;;
58303;Laerm;44109;52.398;7.024;2023-02-18T01:28:32;47.47;30.63;57.55;;
58303;Laerm;44109;52.398;7.024;2023-02-18T01:31:04;47.63;31.43;60.83;;
58303;Laerm;44109;52.398;7.024;2023-02-18T01:33:33;47.05;30.78;57.99;;
58303;Laerm;44109;52.398;7.024;2023-02-18T01:36:03;47.35;30.71;57.90;;
58303;Laerm;44109;52.398;7.024;2023-02-18T01:38:31;47.68;30.56;57.81;;
58303;Laerm;44109;52.398;7.024;2023-02-18T01:40:59;47.49;30.74;57.59;;
58303;Laerm;44109;52.398;7.024;2023-02-18T01:43:26;47.78;31.05;57.89;;
58303;Laerm;44109;52.398;7.024;2023-02-18T01:46:06;47.67;31.06;62.52;;
58303;Laerm;44109;52.398;7.024;2023-02-18T01:48:40;47.22;30.73;57.84;;
58303;Laerm;44109;52.398;7.024;2023-02-18T01:51:14;47.33;31.55;57.60;;
58303;Laerm;44109;52.398;7.024;2023-02-18T01:53:50;47.23;31.09;57.80;;
58303;Laerm;44109;52.398;7.024;2023-02-18T01:56:27;47.36;30.97;57.60;;
58303;Laerm;44109;52.398;7.024;2023-02-18T01:59:01;47.40;31.35;57.96;;
58303;Laerm;44109;52.398;7.024;2023-02-18T02:01:31;47.58;30.74;58.07;;
58303;Laerm;44109;52.398;7.024;2023-02-18T02:03:59;47.60;30.72;58.32;;
58303;Laerm;44109;52.398;7.024;2023-02-18T02:06:30;47.60;31.34;57.93;;
58303;Laerm;44109;52.398;7.024;2023-02-18T02:09:02;47.46;30.98;57.76;;
58303;Laerm;44109;52.398;7.024;2023-02-18T02:12:02;46.59;31.05;57.90;;
58303;Laerm;44109;52.398;7.024;2023-02-18T02:14:50;46.81;31.00;58.01;;
58303;Laerm;44109;52.398;7.024;2023-02-18T02:17:35;46.99;31.42;58.00;;
58303;Laerm;44109;52.398;7.024;2023-02-18T02:20:37;46.77;31.64;58.04;;
58303;Laerm;44109;52.398;7.024;2023-02-18T02:26:59;46.73;31.12;58.04;;
58303;Laerm;44109;52.398;7.024;2023-02-18T02:33:24;46.37;30.72;57.92;;
58303;Laerm;44109;52.398;7.024;2023-02-18T02:36:02;47.06;30.83;57.80;;
58303;Laerm;44109;52.398;7.024;2023-02-18T02:38:42;47.46;31.28;57.95;;
58303;Laerm;44109;52.398;7.024;2023-02-18T02:41:38;47.26;30.92;57.86;;
58303;Laerm;44109;52.398;7.024;2023-02-18T02:44:19;47.26;31.46;58.21;;
58303;Laerm;44109;52.398;7.024;2023-02-18T02:46:52;47.54;31.21;57.94;;
58303;Laerm;44109;52.398;7.024;2023-02-18T02:49:37;47.15;31.19;57.94;;
58303;Laerm;44109;52.398;7.024;2023-02-18T02:52:16;47.38;31.30;57.68;;
58303;Laerm;44109;52.398;7.024;2023-02-18T02:54:46;47.61;31.12;57.92;;
58303;Laerm;44109;52.398;7.024;2023-02-18T02:57:47;46.88;31.37;57.51;;
58303;Laerm;44109;52.398;7.024;2023-02-18T03:00:19;47.46;30.94;57.80;;
58303;Laerm;44109;52.398;7.024;2023-02-18T03:03:20;46.79;30.96;58.00;;
58303;Laerm;44109;52.398;7.024;2023-02-18T03:06:15;46.48;30.69;57.92;;
58303;Laerm;44109;52.398;7.024;2023-02-18T03:08:59;46.62;30.86;57.97;;
58303;Laerm;44109;52.398;7.024;2023-02-18T03:11:41;47.01;31.11;58.08;;
58303;Laerm;44109;52.398;7.024;2023-02-18T03:14:18;47.30;31.16;57.77;;
58303;Laerm;44109;52.398;7.024;2023-02-18T03:16:58;47.31;30.88;57.94;;
58303;Laerm;44109;52.398;7.024;2023-02-18T03:19:32;47.62;30.92;57.84;;
58303;Laerm;44109;52.398;7.024;2023-02-18T03:22:08;47.42;31.03;57.86;;
58303;Laerm;44109;52.398;7.024;2023-02-18T03:24:41;47.62;31.72;57.93;;
58303;Laerm;44109;52.398;7.024;2023-02-18T03:27:15;47.49;31.63;57.96;;
58303;Laerm;44109;52.398;7.024;2023-02-18T03:29:49;47.67;32.21;57.77;;
58303;Laerm;44109;52.398;7.024;2023-02-18T03:32:22;47.53;31.08;57.91;;
58303;Laerm;44109;52.398;7.024;2023-02-18T03:34:56;47.64;31.43;57.83;;
58303;Laerm;44109;52.398;7.024;2023-02-18T03:37:28;47.67;31.20;57.92;;
58303;Laerm;44109;52.398;7.024;2023-02-18T03:40:01;47.59;30.88;57.68;;
58303;Laerm;44109;52.398;7.024;2023-02-18T03:42:29;47.68;31.12;57.86;;
58303;Laerm;44109;52.398;7.024;2023-02-18T03:44:56;47.64;30.82;57.97;;
58303;Laerm;44109;52.398;7.024;2023-02-18T03:47:24;47.54;30.58;57.82;;
58303;Laerm;44109;52.398;7.024;2023-02-18T03:49:52;47.61;31.29;57.62;;
58303;Laerm;44109;52.398;7.024;2023-02-18T03:52:20;47.66;30.86;57.87;;
58303;Laerm;44109;52.398;7.024;2023-02-18T03:54:47;47.63;30.83;57.55;;
58303;Laerm;44109;52.398;7.024;2023-02-18T03:57:17;47.57;31.32;57.83;;
58303;Laerm;44109;52.398;7.024;2023-02-18T03:59:45;47.59;30.50;57.98;;
58303;Laerm;44109;52.398;7.024;2023-02-18T04:02:12;47.76;30.88;57.68;;
58303;Laerm;44109;52.398;7.024;2023-02-18T04:04:40;47.71;30.84;57.77;;
58303;Laerm;44109;52.398;7.024;2023-02-18T04:07:07;47.58;31.19;57.87;;
58303;Laerm;44109;52.398;7.024;2023-02-18T04:09:35;47.74;31.05;57.92;;
58303;Laerm;44109;52.398;7.024;2023-02-18T04:12:03;47.82;31.46;59.30;;
58303;Laerm;44109;52.398;7.024;2023-02-18T04:14:32;48.24;31.83;59.07;;
58303;Laerm;44109;52.398;7.024;2023-02-18T04:17:00;47.88;32.51;57.87;;
58303;Laerm;44109;52.398;7.024;2023-02-18T04:19:27;47.85;31.84;57.49;;
58303;Laerm;44109;52.398;7.024;2023-02-18T04:21:55;47.76;31.76;57.73;;
58303;Laerm;44109;52.398;7.024;2023-02-18T04:24:22;48.28;32.10;58.33;;
58303;Laerm;44109;52.398;7.024;2023-02-18T04:26:50;48.75;31.65;57.81;;
58303;Laerm;44109;52.398;7.024;2023-02-18T04:29:18;48.38;34.50;60.40;;
58303;Laerm;44109;52.398;7.024;2023-02-18T04:31:47;48.11;34.85;57.99;;
58303;Laerm;44109;52.398;7.024;2023-02-18T04:34:14;47.86;32.32;57.58;;
58303;Laerm;44109;52.398;7.024;2023-02-18T04:36:42;48.50;32.78;57.94;;
58303;Laerm;44109;52.398;7.024;2023-02-18T04:39:09;47.99;32.04;57.67;;
58303;Laerm;44109;52.398;7.024;2023-02-18T04:41:37;47.74;31.49;57.99;;
58303;Laerm;44109;52.398;7.024;2023-02-18T04:44:05;47.70;31.76;57.58;;
58303;Laerm;44109;52.398;7.024;2023-02-18T04:46:32;48.11;32.03;65.51;;
58303;Laerm;44109;52.398;7.024;2023-02-18T04:49:01;47.89;32.15;69.19;;
58303;Laerm;44109;52.398;7.024;2023-02-18T04:51:29;47.60;31.16;57.79;;
58303;Laerm;44109;52.398;7.024;2023-02-18T04:53:57;47.89;30.91;63.10;;
58303;Laerm;44109;52.398;7.024;2023-02-18T04:56:24;48.27;31.47;59.23;;
58303;Laerm;44109;52.398;7.024;2023-02-18T04:58:52;48.65;32.55;58.68;;
58303;Laerm;44109;52.398;7.024;2023-02-18T05:01:20;48.51;33.42;59.12;;
58303;Laerm;44109;52.398;7.024;2023-02-18T05:03:47;49.08;35.50;61.96;;
58303;Laerm;44109;52.398;7.024;2023-02-18T05:06:16;52.63;35.02;78.00;;
58303;Laerm;44109;52.398;7.024;2023-02-18T05:08:44;53.73;37.31;79.71;;
58303;Laerm;44109;52.398;7.024;2023-02-18T05:11:11;54.49;37.91;80.96;;
58303;Laerm;44109;52.398;7.024;2023-02-18T05:13:39;53.26;34.80;78.50;;
58303;Laerm;44109;52.398;7.024;2023-02-18T05:16:06;57.24;34.96;83.32;;
58303;Laerm;44109;52.398;7.024;2023-02-18T05:18:34;54.18;38.48;80.93;;
58303;Laerm;44109;52.398;7.024;2023-02-18T05:21:02;54.29;37.37;77.90;;
58303;Laerm;44109;52.398;7.024;2023-02-18T05:23:31;52.63;34.95;82.09;;
58303;Laerm;44109;52.398;7.024;2023-02-18T05:25:59;56.03;34.07;79.73;;
58303;Laerm;44109;52.398;7.024;2023-02-18T05:28:26;52.17;38.11;78.56;;
58303;Laerm;44109;52.398;7.024;2023-02-18T05:30:54;51.59;37.11;77.61;;
58303;Laerm;44109;52.398;7.024;2023-02-18T05:33:21;50.29;34.45;74.05;;
58303;Laerm;44109;52.398;7.024;2023-02-18T05:35:49;51.77;34.91;76.51;;
58303;Laerm;44109;52.398;7.024;2023-02-18T05:38:17;54.59;40.34;78.63;;
58303;Laerm;44109;52.398;7.024;2023-02-18T05:40:46;57.46;41.38;85.05;;
58303;Laerm;44109;52.398;7.024;2023-02-18T05:43:14;58.53;41.01;90.90;;
58303;Laerm;44109;52.398;7.024;2023-02-18T05:45:42;57.00;39.09;80.34;;
58303;Laerm;44109;52.398;7.024;2023-02-18T05:48:09;57.89;39.93;79.47;;
58303;Laerm;44109;52.398;7.024;2023-02-18T05:50:37;57.92;41.70;84.12;;
58303;Laerm;44109;52.398;7.024;2023-02-18T05:53:05;53.93;36.73;79.89;;
58303;Laerm;44109;52.398;7.024;2023-02-18T05:55:32;53.30;36.62;77.98;;
58303;Laerm;44109;52.398;7.024;2023-02-18T05:58:04;54.46;37.85;80.27;;
58303;Laerm;44109;52.398;7.024;2023-02-18T06:00:32;56.06;39.66;83.44;;
58303;Laerm;44109;52.398;7.024;2023-02-18T06:03:00;55.26;40.28;81.05;;
58303;Laerm;44109;52.398;7.024;2023-02-18T06:05:27;58.20;39.48;84.51;;
58303;Laerm;44109;52.398;7.024;2023-02-18T06:07:55;56.44;39.90;83.69;;
58303;Laerm;44109;52.398;7.024;2023-02-18T06:10:22;55.68;39.14;81.39;;
58303;Laerm;44109;52.398;7.024;2023-02-18T06:12:50;54.56;38.32;77.33;;
58303;Laerm;44109;52.398;7.024;2023-02-18T06:15:19;51.97;38.11;77.69;;
58303;Laerm;44109;52.398;7.024;2023-02-18T06:17:46;57.22;41.06;81.56;;
58303;Laerm;44109;52.398;7.024;2023-02-18T06:20:14;56.44;40.86;78.76;;
58303;Laerm;44109;52.398;7.024;2023-02-18T06:22:42;55.05;39.76;80.53;;
58303;Laerm;44109;52.398;7.024;2023-02-18T06:25:09;56.25;38.96;83.15;;
58303;Laerm;44109;52.398;7.024;2023-02-18T06:27:37;54.66;38.74;79.12;;
58303;Laerm;44109;52.398;7.024;2023-02-18T06:30:06;55.20;38.71;78.29;;
58303;Laerm;44109;52.398;7.024;2023-02-18T06:32:36;53.72;39.67;80.22;;
58303;Laerm;44109;52.398;7.024;2023-02-18T06:35:04;55.43;40.40;82.45;;
58303;Laerm;44109;52.398;7.024;2023-02-18T06:37:32;54.76;40.09;76.99;;
58303;Laerm;44109;52.398;7.024;2023-02-18T06:39:59;53.38;37.87;80.46;;
58303;Laerm;44109;52.398;7.024;2023-02-18T06:42:27;60.70;38.61;95.20;;
58303;Laerm;44109;52.398;7.024;2023-02-18T06:44:54;55.61;42.76;78.97;;
58303;Laerm;44109;52.398;7.024;2023-02-18T06:47:22;55.29;40.71;78.31;;
58303;Laerm;44109;52.398;7.024;2023-02-18T06:49:51;54.33;42.19;78.13;;
58303;Laerm;44109;52.398;7.024;2023-02-18T06:52:18;55.22;42.43;76.68;;
58303;Laerm;44109;52.398;7.024;2023-02-18T06:54:46;55.60;43.44;78.80;;
58303;Laerm;44109;52.398;7.024;2023-02-18T06:57:14;52.33;42.05;74.52;;
58303;Laerm;44109;52.398;7.024;2023-02-18T06:59:41;54.24;40.60;81.12;;
58303;Laerm;44109;52.398;7.024;2023-02-18T07:02:10;55.03;41.71;81.18;;
58303;Laerm;44109;52.398;7.024;2023-02-18T07:04:39;53.73;39.74;79.20;;
58303;Laerm;44109;52.398;7.024;2023-02-18T07:07:08;56.42;41.63;81.53;;
58303;Laerm;44109;52.398;7.024;2023-02-18T07:09:35;54.59;41.24;81.00;;
58303;Laerm;44109;52.398;7.024;2023-02-18T07:12:04;54.41;41.28;79.36;;
58303;Laerm;44109;52.398;7.024;2023-02-18T07:14:32;53.85;40.29;75.19;;
58303;Laerm;44109;52.398;7.024;2023-02-18T07:16:59;53.36;39.30;74.75;;
58303;Laerm;44109;52.398;7.024;2023-02-18T07:19:27;54.04;42.09;77.25;;
58303;Laerm;44109;52.398;7.024;2023-02-18T07:21:54;55.50;41.55;79.44;;
58303;Laerm;44109;52.398;7.024;2023-02-18T07:24:24;55.42;42.82;85.59;;
58303;Laerm;44109;52.398;7.024;2023-02-18T07:26:52;56.00;41.73;86.55;;
58303;Laerm;44109;52.398;7.024;2023-02-18T07:29:19;54.43;41.79;78.25;;
58303;Laerm;44109;52.398;7.024;2023-02-18T07:31:47;63.51;45.01;92.07;;
58303;Laerm;44109;52.398;7.024;2023-02-18T07:34:14;68.64;49.89;94.50;;
58303;Laerm;44109;52.398;7.024;2023-02-18T07:36:42;72.93;51.81;96.97;;
58303;Laerm;44109;52.398;7.024;2023-02-18T07:39:10;68.06;52.48;90.63;;
58303;Laerm;44109;52.398;7.024;2023-02-18T07:41:39;67.23;49.26;89.20;;
58303;Laerm;44109;52.398;7.024;2023-02-18T07:44:07;65.34;47.18;89.88;;
58303;Laerm;44109;52.398;7.024;2023-02-18T07:46:34;62.64;47.24;87.34;;
58303;Laerm;44109;52.398;7.024;2023-02-18T07:49:05;62.86;47.98;88.84;;
58303;Laerm;44109;52.398;7.024;2023-02-18T07:51:33;60.25;44.06;85.75;;
58303;Laerm;44109;52.398;7.024;2023-02-18T07:54:03;65.92;48.45;90.66;;
58303;Laerm;44109;52.398;7.024;2023-02-18T07:56:31;57.83;43.05;83.01;;
58303;Laerm;44109;52.398;7.024;2023-02-18T07:59:00;57.72;45.22;81.81;;
58303;Laerm;44109;52.398;7.024;2023-02-18T08:01:27;53.63;42.45;76.07;;
58303;Laerm;44109;52.398;7.024;2023-02-18T08:03:55;56.19;41.35;81.57;;
58303;Laerm;44109;52.398;7.024;2023-02-18T08:06:29;63.10;46.40;86.75;;
58303;Laerm;44109;52.398;7.024;2023-02-18T08:08:57;53.69;42.52;76.06;;
58303;Laerm;44109;52.398;7.024;2023-02-18T08:11:25;52.99;43.23;77.12;;
58303;Laerm;44109;52.398;7.024;2023-02-18T08:13:53;50.67;42.66;66.43;;
58303;Laerm;44109;52.398;7.024;2023-02-18T08:16:22;51.65;42.79;68.40;;
58303;Laerm;44109;52.398;7.024;2023-02-18T08:18:51;51.43;42.27;63.02;;
58303;Laerm;44109;52.398;7.024;2023-02-18T08:21:21;50.42;41.31;62.47;;
58303;Laerm;44109;52.398;7.024;2023-02-18T08:23:50;50.48;41.61;63.16;;
58303;Laerm;44109;52.398;7.024;2023-02-18T08:26:19;51.65;42.26;63.00;;
58303;Laerm;44109;52.398;7.024;2023-02-18T08:28:47;50.56;41.33;63.63;;
58303;Laerm;44109;52.398;7.024;2023-02-18T08:31:18;50.86;42.02;67.32;;
58303;Laerm;44109;52.398;7.024;2023-02-18T08:33:48;59.88;42.01;86.98;;
58303;Laerm;44109;52.398;7.024;2023-02-18T08:36:16;53.86;44.40;75.14;;
58303;Laerm;44109;52.398;7.024;2023-02-18T08:38:44;51.57;43.40;69.46;;
58303;Laerm;44109;52.398;7.024;2023-02-18T08:41:12;54.55;42.03;78.24;;
58303;Laerm;44109;52.398;7.024;2023-02-18T08:43:41;53.07;42.56;75.60;;
58303;Laerm;44109;52.398;7.024;2023-02-18T08:46:09;51.13;42.92;65.77;;
58303;Laerm;44109;52.398;7.024;2023-02-18T08:48:37;52.24;43.15;69.55;;
58303;Laerm;44109;52.398;7.024;2023-02-18T08:51:18;52.78;44.36;67.11;;
58303;Laerm;44109;52.398;7.024;2023-02-18T08:53:47;51.88;42.04;65.10;;
58303;Laerm;44109;52.398;7.024;2023-02-18T08:56:15;51.98;42.43;76.04;;
58303;Laerm;44109;52.398;7.024;2023-02-18T08:58:43;51.34;41.85;69.08;;
58303;Laerm;44109;52.398;7.024;2023-02-18T09:01:12;57.58;45.96;85.16;;
58303;Laerm;44109;52.398;7.024;2023-02-18T09:03:42;52.52;43.71;73.54;;
58303;Laerm;44109;52.398;7.024;2023-02-18T09:06:10;50.47;41.18;59.91;;
58303;Laerm;44109;52.398;7.024;2023-02-18T09:08:39;52.49;42.91;72.33;;
58303;Laerm;44109;52.398;7.024;2023-02-18T09:11:07;53.81;41.20;73.30;;
58303;Laerm;44109;52.398;7.024;2023-02-18T09:13:36;54.26;43.20;79.64;;
58303;Laerm;44109;52.398;7.024;2023-02-18T09:16:07;53.59;44.56;82.19;;
58303;Laerm;44109;52.398;7.024;2023-02-18T09:18:35;55.98;45.54;71.98;;
58303;Laerm;44109;52.398;7.024;2023-02-18T09:21:05;52.28;43.31;69.86;;
58303;Laerm;44109;52.398;7.024;2023-02-18T09:23:34;52.06;44.45;69.76;;
58303;Laerm;44109;52.398;7.024;2023-02-18T09:26:05;53.23;44.97;68.11;;
58303;Laerm;44109;52.398;7.024;2023-02-18T09:28:34;51.50;45.31;67.08;;
58303;Laerm;44109;52.398;7.024;2023-02-18T09:31:06;53.45;46.53;71.58;;
58303;Laerm;44109;52.398;7.024;2023-02-18T09:33:35;53.50;45.76;65.72;;
58303;Laerm;44109;52.398;7.024;2023-02-18T09:36:04;54.64;45.55;78.45;;
58303;Laerm;44109;52.398;7.024;2023-02-18T09:38:32;55.72;43.97;82.56;;
58303;Laerm;44109;52.398;7.024;2023-02-18T09:41:06;55.29;44.80;79.83;;
58303;Laerm;44109;52.398;7.024;2023-02-18T09:43:40;54.88;43.73;77.67;;
58303;Laerm;44109;52.398;7.024;2023-02-18T09:46:15;55.84;46.24;78.28;;
58303;Laerm;44109;52.398;7.024;2023-02-18T09:48:47;55.76;48.12;78.08;;
58303;Laerm;44109;52.398;7.024;2023-02-18T09:51:16;58.74;46.99;82.51;;
58303;Laerm;44109;52.398;7.024;2023-02-18T09:53:44;56.42;44.12;82.72;;
58303;Laerm;44109;52.398;7.024;2023-02-18T09:56:18;56.20;44.16;76.63;;
58303;Laerm;44109;52.398;7.024;2023-02-18T09:58:48;59.12;44.89;90.87;;
58303;Laerm;44109;52.398;7.024;2023-02-18T10:01:25;59.55;45.41;84.41;;
58303;Laerm;44109;52.398;7.024;2023-02-18T10:03:59;57.60;45.17;80.14;;
58303;Laerm;44109;52.398;7.024;2023-02-18T10:06:31;63.30;45.16;84.45;;
58303;Laerm;44109;52.398;7.024;2023-02-18T10:09:03;58.63;43.72;81.44;;
58303;Laerm;44109;52.398;7.024;2023-02-18T10:11:40;56.28;44.89;79.18;;
58303;Laerm;44109;52.398;7.024;2023-02-18T10:14:12;65.76;46.60;90.10;;
58303;Laerm;44109;52.398;7.024;2023-02-18T10:16:42;59.54;45.18;81.02;;
58303;Laerm;44109;52.398;7.024;2023-02-18T10:19:22;59.05;45.05;86.65;;
58303;Laerm;44109;52.398;7.024;2023-02-18T10:21:52;57.66;45.11;80.64;;
58303;Laerm;44109;52.398;7.024;2023-02-18T10:24:31;59.94;46.27;80.76;;
58303;Laerm;44109;52.398;7.024;2023-02-18T10:27:05;62.46;47.86;84.50;;
58303;Laerm;44109;52.398;7.024;2023-02-18T10:29:34;62.48;47.10;89.27;;
58303;Laerm;44109;52.398;7.024;2023-02-18T10:32:11;56.24;45.78;80.43;;
58303;Laerm;44109;52.398;7.024;2023-02-18T10:34:48;57.35;45.30;79.52;;
58303;Laerm;44109;52.398;7.024;2023-02-18T10:37:39;57.87;46.50;79.57;;
58303;Laerm;44109;52.398;7.024;2023-02-18T10:40:17;56.45;47.40;82.04;;
58303;Laerm;44109;52.398;7.024;2023-02-18T10:43:05;55.88;44.57;79.02;;
58303;Laerm;44109;52.398;7.024;2023-02-18T10:45:46;56.53;46.94;80.45;;
58303;Laerm;44109;52.398;7.024;2023-02-18T10:48:53;60.83;44.87;85.68;;
58303;Laerm;44109;52.398;7.024;2023-02-18T10:51:33;59.62;46.49;86.84;;
58303;Laerm;44109;52.398;7.024;2023-02-18T10:54:02;56.12;47.02;76.00;;
58303;Laerm;44109;52.398;7.024;2023-02-18T10:56:39;55.73;45.34;79.40;;
58303;Laerm;44109;52.398;7.024;2023-02-18T10:59:13;56.77;46.42;75.78;;
58303;Laerm;44109;52.398;7.024;2023-02-18T11:01:45;52.07;44.58;75.40;;
58303;Laerm;44109;52.398;7.024;2023-02-18T11:04:26;54.71;44.99;83.43;;
58303;Laerm;44109;52.398;7.024;2023-02-18T11:06:54;57.41;45.94;75.14;;
58303;Laerm;44109;52.398;7.024;2023-02-18T11:09:40;55.83;46.10;75.02;;
58303;Laerm;44109;52.398;7.024;2023-02-18T11:12:17;52.90;45.03;70.25;;
58303;Laerm;44109;52.398;7.024;2023-02-18T11:15:04;58.00;45.88;77.72;;
58303;Laerm;44109;52.398;7.024;2023-02-18T11:17:34;54.13;45.30;70.38;;
58303;Laerm;44109;52.398;7.024;2023-02-18T11:20:26;51.61;43.30;67.07;;
58303;Laerm;44109;52.398;7.024;2023-02-18T11:23:17;52.00;44.97;70.15;;
58303;Laerm;44109;52.398;7.024;2023-02-18T11:25:58;53.24;45.49;69.22;;
58303;Laerm;44109;52.398;7.024;2023-02-18T11:28:40;53.87;46.43;72.61;;
58303;Laerm;44109;52.398;7.024;2023-02-18T11:31:21;51.66;44.04;61.05;;
58303;Laerm;44109;52.398;7.024;2023-02-18T11:33:53;52.00;44.65;72.68;;
58303;Laerm;44109;52.398;7.024;2023-02-18T11:36:24;54.86;44.08;74.50;;
58303;Laerm;44109;52.398;7.024;2023-02-18T11:38:57;52.29;42.87;66.24;;
58303;Laerm;44109;52.398;7.024;2023-02-18T11:41:33;52.11;45.18;60.61;;
58303;Laerm;44109;52.398;7.024;2023-02-18T11:44:05;53.92;45.43;67.32;;
58303;Laerm;44109;52.398;7.024;2023-02-18T11:46:35;52.81;44.52;66.19;;
58303;Laerm;44109;52.398;7.024;2023-02-18T11:49:21;53.29;45.31;71.52;;
58303;Laerm;44109;52.398;7.024;2023-02-18T11:51:51;51.89;43.90;66.19;;
58303;Laerm;44109;52.398;7.024;2023-02-18T11:54:25;50.75;42.58;69.10;;
58303;Laerm;44109;52.398;7.024;2023-02-18T11:56:59;51.74;43.15;66.92;;
58303;Laerm;44109;52.398;7.024;2023-02-18T11:59:32;55.38;45.58;74.93;;
58303;Laerm;44109;52.398;7.024;2023-02-18T12:02:27;50.71;42.96;70.19;;
58303;Laerm;44109;52.398;7.024;2023-02-18T12:05:02;51.66;42.81;72.56;;
58303;Laerm;44109;52.398;7.024;2023-02-18T12:07:42;51.62;41.42;77.64;;
58303;Laerm;44109;52.398;7.024;2023-02-18T12:10:14;50.25;42.27;68.22;;
58303;Laerm;44109;52.398;7.024;2023-02-18T12:12:51;51.14;43.20;70.53;;
58303;Laerm;44109;52.398;7.024;2023-02-18T12:15:31;51.17;43.21;73.51;;
58303;Laerm;44109;52.398;7.024;2023-02-18T12:18:22;50.58;41.78;61.69;;
58303;Laerm;44109;52.398;7.024;2023-02-18T12:21:12;51.31;43.62;71.33;;
58303;Laerm;44109;52.398;7.024;2023-02-18T12:23:55;51.64;42.92;70.24;;
58303;Laerm;44109;52.398;7.024;2023-02-18T12:26:30;51.55;44.38;65.21;;
58303;Laerm;44109;52.398;7.024;2023-02-18T12:29:32;52.14;43.18;65.05;;
58303;Laerm;44109;52.398;7.024;2023-02-18T12:32:34;51.57;44.15;67.58;;
58303;Laerm;44109;52.398;7.024;2023-02-18T12:35:27;51.72;43.68;68.53;;
58303;Laerm;44109;52.398;7.024;2023-02-18T12:41:38;50.68;43.02;64.65;;
58303;Laerm;44109;52.398;7.024;2023-02-18T12:44:23;51.21;42.78;69.16;;
58303;Laerm;44109;52.398;7.024;2023-02-18T12:47:15;50.63;42.88;67.05;;
58303;Laerm;44109;52.398;7.024;2023-02-18T12:50:14;50.09;42.65;62.86;;
58303;Laerm;44109;52.398;7.024;2023-02-18T12:52:58;51.35;43.31;69.57;;
58303;Laerm;44109;52.398;7.024;2023-02-18T12:55:47;49.90;42.97;58.24;;
58303;Laerm;44109;52.398;7.024;2023-02-18T12:58:32;51.69;42.82;66.97;;
58303;Laerm;44109;52.398;7.024;2023-02-18T13:01:18;51.40;42.66;69.06;;
58303;Laerm;44109;52.398;7.024;2023-02-18T13:04:18;50.43;42.31;73.74;;
58303;Laerm;44109;52.398;7.024;2023-02-18T13:07:25;50.08;42.68;63.05;;
58303;Laerm;44109;52.398;7.024;2023-02-18T13:13:10;53.27;43.88;67.39;;
58303;Laerm;44109;52.398;7.024;2023-02-18T13:15:44;52.08;43.40;67.68;;
58303;Laerm;44109;52.398;7.024;2023-02-18T13:18:22;51.08;43.24;68.84;;
58303;Laerm;44109;52.398;7.024;2023-02-18T13:20:54;52.56;44.26;69.42;;
58303;Laerm;44109;52.398;7.024;2023-02-18T13:23:29;51.25;43.15;68.36;;
58303;Laerm;44109;52.398;7.024;2023-02-18T13:26:02;51.42;42.62;67.64;;
58303;Laerm;44109;52.398;7.024;2023-02-18T13:28:41;50.17;41.74;65.99;;
58303;Laerm;44109;52.398;7.024;2023-02-18T13:31:30;51.45;43.38;70.07;;
58303;Laerm;44109;52.398;7.024;2023-02-18T13:34:08;49.59;43.00;59.56;;
58303;Laerm;44109;52.398;7.024;2023-02-18T13:37:02;49.10;41.82;59.51;;
58303;Laerm;44109;52.398;7.024;2023-02-18T13:39:34;48.61;40.69;57.98;;
58303;Laerm;44109;52.398;7.024;2023-02-18T13:42:36;50.06;42.27;65.73;;
58303;Laerm;44109;52.398;7.024;2023-02-18T13:45:25;50.32;42.31;62.34;;
58303;Laerm;44109;52.398;7.024;2023-02-18T13:47:55;50.61;41.77;74.55;;
58303;Laerm;44109;52.398;7.024;2023-02-18T13:50:31;53.12;41.40;66.49;;
58303;Laerm;44109;52.398;7.024;2023-02-18T13:53:19;51.52;42.86;64.78;;
58303;Laerm;44109;52.398;7.024;2023-02-18T13:55:59;51.53;41.66;66.55;;
58303;Laerm;44109;52.398;7.024;2023-02-18T13:58:38;52.81;44.48;66.60;;
58303;Laerm;44109;52.398;7.024;2023-02-18T14:01:22;49.77;41.84;63.37;;
58303;Laerm;44109;52.398;7.024;2023-02-18T14:03:58;50.35;41.42;67.29;;
58303;Laerm;44109;52.398;7.024;2023-02-18T14:06:31;54.47;42.86;72.84;;
58303;Laerm;44109;52.398;7.024;2023-02-18T14:12:37;54.53;41.73;75.99;;
58303;Laerm;44109;52.398;7.024;2023-02-18T14:15:47;56.64;43.81;83.35;;
58303;Laerm;44109;52.398;7.024;2023-02-18T14:21:33;51.68;41.40;71.46;;
58303;Laerm;44109;52.398;7.024;2023-02-18T14:24:04;52.12;43.22;70.56;;
58303;Laerm;44109;52.398;7.024;2023-02-18T14:26:39;53.11;43.83;69.57;;
58303;Laerm;44109;52.398;7.024;2023-02-18T14:29:23;52.96;42.59;71.32;;
58303;Laerm;44109;52.398;7.024;2023-02-18T14:31:59;53.31;44.46;72.32;;
58303;Laerm;44109;52.398;7.024;2023-02-18T14:34:58;54.85;43.22;72.72;;
58303;Laerm;44109;52.398;7.024;2023-02-18T14:41:00;52.24;41.88;69.03;;
58303;Laerm;44109;52.398;7.024;2023-02-18T14:44:02;50.98;42.30;69.25;;
58303;Laerm;44109;52.398;7.024;2023-02-18T14:46:55;53.26;42.10;74.32;;